Time;durP1;ratioP1;P1;durP2;ratioP2;P2;SDS_P1;SDS_P2;PMS_P1;PMS_P2;Temp;Humidity;BMP_temperature;BMP_pressure;BME280_temperature;BME280_humidity;BME280_pressure;Samples;Min_cycle;Max_cycle;Signal;HPM_P1;HPM_P2
2021/07/05 00:00:58;;;;;;;10.35;7.25;;;;;;;13.21;84.23;97510.59;1765291;81;20906;-79
2021/07/05 00:03:24;;;;;;;13.03;8.33;;;;;;;13.22;83.22;97511.39;1765179;81;21512;-82
2021/07/05 00:05:50;;;;;;;10.55;7.92;;;;;;;13.18;83.94;97515.83;1765193;81;20937;-82
2021/07/05 00:08:16;;;;;;;12.85;7.50;;;;;;;13.16;84.38;97519.39;1765122;81;20999;-82
2021/07/05 00:10:42;;;;;;;9.83;7.00;;;;;;;13.17;83.56;97518.30;1765891;81;21087;-81
2021/07/05 00:13:08;;;;;;;13.85;7.97;;;;;;;13.11;84.29;97518.17;1764891;81;20894;-81
2021/07/05 00:15:34;;;;;;;12.88;8.30;;;;;;;13.11;83.08;97520.33;1765166;81;21065;-82
2021/07/05 00:18:05;;;;;;;9.08;7.50;;;;;;;12.95;84.73;97513.08;1743276;81;20855;-79
2021/07/05 00:20:34;;;;;;;12.50;8.58;;;;;;;12.92;84.20;97513.70;1765244;81;21010;-81
2021/07/05 00:22:59;;;;;;;;;;;;;;;12.83;84.46;97517.45;1767494;81;21290;-78
2021/07/05 00:25:26;;;;;;;12.05;8.33;;;;;;;12.80;84.80;97509.89;1764999;81;20259;-81
2021/07/05 00:27:52;;;;;;;10.95;7.05;;;;;;;12.77;83.32;97507.80;1764910;80;21339;-78
2021/07/05 00:30:18;;;;;;;10.23;7.75;;;;;;;12.65;84.55;97505.62;1765361;81;20938;-81
2021/07/05 00:32:44;;;;;;;10.43;7.33;;;;;;;12.61;83.71;97506.77;1764710;81;21203;-79
2021/07/05 00:35:12;;;;;;;10.08;7.17;;;;;;;12.56;83.32;97498.73;1765218;80;21289;-81
2021/07/05 00:37:38;;;;;;;29.35;8.80;;;;;;;12.49;83.91;97498.34;1764948;81;21013;-81
2021/07/05 00:40:05;;;;;;;8.93;7.17;;;;;;;12.41;84.13;97505.30;1764907;81;20950;-79
2021/07/05 00:42:31;;;;;;;9.00;7.00;;;;;;;12.33;84.41;97500.58;1764847;81;21009;-78
2021/07/05 00:44:57;;;;;;;10.10;7.00;;;;;;;12.34;83.78;97511.69;1765320;81;21441;-81
2021/07/05 00:47:23;;;;;;;13.95;7.62;;;;;;;12.29;84.96;97510.97;1743526;81;21013;-78
2021/07/05 00:49:49;;;;;;;13.50;7.05;;;;;;;12.33;85.44;97503.29;1765040;81;20867;-79
2021/07/05 00:52:16;;;;;;;9.78;7.97;;;;;;;12.32;84.58;97503.04;1764756;81;32708;-79
2021/07/05 00:54:42;;;;;;;11.33;7.65;;;;;;;12.32;83.98;97504.95;1765073;81;20843;-78
2021/07/05 00:57:20;;;;;;;10.90;7.05;;;;;;;12.35;83.92;97507.86;1743187;81;20914;-81
2021/07/05 00:59:50;;;;;;;9.60;7.23;;;;;;;12.35;83.94;97505.70;1765078;81;21171;-78
2021/07/05 01:02:17;;;;;;;14.40;9.08;;;;;;;12.27;84.18;97506.41;1765073;81;21360;-79
2021/07/05 01:04:43;;;;;;;9.78;7.80;;;;;;;12.19;84.17;97503.03;1764947;81;20962;-78
2021/07/05 01:07:09;;;;;;;11.73;8.53;;;;;;;12.13;84.44;97499.61;1764895;81;20947;-78
2021/07/05 01:09:35;;;;;;;11.33;8.30;;;;;;;12.08;84.28;97505.96;1765099;81;20961;-78
2021/07/05 01:12:01;;;;;;;12.43;8.50;;;;;;;12.03;84.49;97500.62;1743420;81;21673;-77
2021/07/05 01:14:27;;;;;;;9.15;7.20;;;;;;;12.04;84.18;97502.22;1768529;80;21327;-78
2021/07/05 01:16:53;;;;;;;9.05;7.22;;;;;;;12.01;84.20;97501.48;1765115;81;20894;-78
2021/07/05 01:19:35;;;;;;;11.12;8.10;;;;;;;11.95;85.07;97501.87;1765227;81;21477;-80
2021/07/05 01:22:01;;;;;;;11.43;7.92;;;;;;;11.91;84.67;97509.02;1765217;80;21013;-79
2021/07/05 01:24:27;;;;;;;10.88;8.30;;;;;;;11.94;83.81;97508.41;1765035;81;21751;-78
2021/07/05 01:26:53;;;;;;;11.97;8.38;;;;;;;11.89;85.67;97505.80;1764802;81;21007;-81
2021/07/05 01:29:19;;;;;;;14.15;9.20;;;;;;;11.91;86.81;97511.73;1765236;81;20859;-81
2021/07/05 01:31:45;;;;;;;10.32;6.80;;;;;;;11.97;86.39;97509.19;1765445;81;20831;-79
2021/07/05 01:34:11;;;;;;;9.83;7.50;;;;;;;12.02;86.11;97509.88;1765121;81;20954;-80
2021/07/05 01:36:37;;;;;;;10.10;7.60;;;;;;;12.02;85.46;97511.23;1765175;81;21148;-78
2021/07/05 01:39:02;;;;;;;11.78;6.80;;;;;;;12.01;86.52;97515.05;1765190;81;20851;-78
2021/07/05 01:41:28;;;;;;;9.33;7.20;;;;;;;11.99;86.29;97519.19;1765389;80;20921;-81
2021/07/05 01:43:54;;;;;;;10.80;8.53;;;;;;;11.96;86.24;97519.21;1765317;81;20831;-78
2021/07/05 01:46:20;;;;;;;11.97;7.58;;;;;;;11.94;86.23;97520.62;1769287;80;20850;-79
2021/07/05 01:48:46;;;;;;;11.03;7.70;;;;;;;11.89;86.36;97518.02;1765256;80;21006;-78
2021/07/05 01:51:12;;;;;;;11.53;8.65;;;;;;;11.90;85.31;97519.08;1765132;80;20974;-79
2021/07/05 01:53:38;;;;;;;13.40;8.28;;;;;;;11.89;86.09;97518.02;1765379;81;20870;-81
2021/07/05 01:56:05;;;;;;;13.45;7.85;;;;;;;11.88;87.19;97524.53;1765935;81;20839;-81
2021/07/05 01:58:31;;;;;;;9.23;8.13;;;;;;;11.91;85.77;97526.11;1769003;81;21343;-81
2021/07/05 02:00:57;;;;;;;11.10;7.33;;;;;;;11.90;86.60;97521.80;1765363;81;21228;-81
2021/07/05 02:03:24;;;;;;;11.60;7.33;;;;;;;11.89;86.71;97528.88;1769185;80;20870;-81
2021/07/05 02:05:50;;;;;;;11.97;8.20;;;;;;;11.92;86.32;97525.56;1765244;81;20919;-78
2021/07/05 02:08:16;;;;;;;9.23;7.53;;;;;;;11.91;86.00;97522.59;1764864;81;20941;-80
2021/07/05 02:10:43;;;;;;;10.13;8.68;;;;;;;11.88;85.90;97515.86;1765381;81;21410;-81
2021/07/05 02:13:13;;;;;;;10.03;7.65;;;;;;;11.83;86.50;97516.75;1765692;80;21319;-81
2021/07/05 02:15:39;;;;;;;9.33;6.47;;;;;;;11.81;86.43;97519.52;1764933;81;20966;-80
2021/07/05 02:18:05;;;;;;;9.38;7.05;;;;;;;11.81;85.58;97523.03;1765317;81;20963;-78
2021/07/05 02:20:31;;;;;;;14.05;8.05;;;;;;;11.76;86.17;97527.71;1765174;81;20906;-78
2021/07/05 02:22:58;;;;;;;14.25;8.60;;;;;;;11.72;86.58;97521.28;1765002;81;20919;-81
2021/07/05 02:25:28;;;;;;;10.38;8.38;;;;;;;11.66;86.99;97521.92;1764913;80;21924;-78
2021/07/05 02:27:56;;;;;;;12.95;8.03;;;;;;;11.71;86.96;97522.39;1765059;81;20978;-81
2021/07/05 02:30:23;;;;;;;17.90;8.23;;;;;;;11.77;86.28;97525.25;1743603;81;21089;-81
2021/07/05 02:32:49;;;;;;;10.90;8.08;;;;;;;11.81;85.66;97527.11;1765394;81;20919;-81
2021/07/05 02:35:19;;;;;;;10.60;6.58;;;;;;;11.76;85.54;97530.42;1765434;81;20855;-81
2021/07/05 02:37:45;;;;;;;8.58;7.47;;;;;;;11.72;85.21;97528.88;1765213;81;21336;-80
2021/07/05 02:40:14;;;;;;;10.68;9.08;;;;;;;11.70;85.61;97538.39;1743079;81;21366;-79
2021/07/05 02:42:40;;;;;;;13.68;9.35;;;;;;;11.68;86.63;97537.89;1765085;81;21398;-81
2021/07/05 02:45:10;;;;;;;13.10;9.58;;;;;;;11.77;84.76;97538.27;1764938;81;21001;-81
2021/07/05 02:47:36;;;;;;;18.70;9.83;;;;;;;11.80;86.01;97536.91;1765146;81;21021;-78
2021/07/05 02:50:05;;;;;;;14.40;8.60;;;;;;;11.88;85.66;97534.03;1765009;81;21274;-78
2021/07/05 02:52:31;;;;;;;10.58;8.08;;;;;;;11.89;85.72;97545.17;1765097;81;21006;-80
2021/07/05 02:54:57;;;;;;;10.32;7.45;;;;;;;11.84;85.85;97549.58;1765120;81;20933;-80
2021/07/05 02:57:29;;;;;;;12.47;8.03;;;;;;;11.87;85.78;97550.88;1765015;81;20910;-78
2021/07/05 03:00:11;;;;;;;11.90;7.45;;;;;;;11.86;85.31;97551.43;1765250;80;20919;-78
2021/07/05 03:02:37;;;;;;;9.60;6.80;;;;;;;11.90;85.25;97556.28;1765017;81;21123;-81
2021/07/05 03:05:07;;;;;;;11.78;6.85;;;;;;;11.97;85.04;97556.70;1743666;81;20930;-79
2021/07/05 03:07:33;;;;;;;19.50;8.20;;;;;;;12.01;84.93;97549.55;1765058;81;20959;-81
2021/07/05 03:09:59;;;;;;;13.90;9.18;;;;;;;12.08;84.53;97552.68;1765622;81;20844;-80
2021/07/05 03:12:25;;;;;;;12.98;8.53;;;;;;;12.09;85.27;97543.42;1765244;81;20891;-79
2021/07/05 03:14:51;;;;;;;15.58;8.63;;;;;;;12.16;85.38;97543.03;1765164;81;22016;-81
2021/07/05 03:17:17;;;;;;;12.65;7.80;;;;;;;12.26;84.69;97541.47;1765093;81;20827;-81
2021/07/05 03:19:44;;;;;;;9.60;7.33;;;;;;;12.31;83.99;97542.19;1765127;81;21015;-78
2021/07/05 03:22:10;;;;;;;12.13;8.25;;;;;;;12.32;84.54;97538.36;1765739;81;20955;-79
2021/07/05 03:24:36;;;;;;;10.53;7.85;;;;;;;12.33;83.45;97534.53;1763366;80;20820;-78
2021/07/05 03:27:04;;;;;;;11.33;7.65;;;;;;;12.27;83.48;97534.38;1726614;82;21089;-81
2021/07/05 03:29:31;;;;;;;11.48;8.48;;;;;;;12.27;83.32;97540.36;1728247;82;20895;-81
2021/07/05 03:32:00;;;;;;;10.30;7.95;;;;;;;12.32;83.56;97538.36;1726817;82;20911;-81
2021/07/05 03:34:27;;;;;;;14.30;9.38;;;;;;;12.42;83.52;97545.50;1726902;83;21463;-81
2021/07/05 03:36:53;;;;;;;10.32;7.72;;;;;;;12.54;84.02;97549.05;1726493;83;20986;-79
2021/07/05 03:39:19;;;;;;;13.90;8.43;;;;;;;12.68;84.78;97556.64;1726575;83;21329;-79
2021/07/05 03:41:45;;;;;;;12.98;9.10;;;;;;;12.81;83.82;97552.28;1726188;83;20959;-81
2021/07/05 03:44:10;;;;;;;12.13;9.20;;;;;;;12.95;83.12;97551.14;1726564;82;20918;-81
2021/07/05 03:46:36;;;;;;;12.55;9.98;;;;;;;13.04;82.83;97553.14;1726227;82;20835;-81
2021/07/05 03:49:04;;;;;;;16.67;9.43;;;;;;;13.12;82.62;97562.73;1730052;83;21002;-79
2021/07/05 03:51:31;;;;;;;14.13;8.88;;;;;;;13.16;82.37;97556.94;1726311;82;21302;-79
2021/07/05 03:53:57;;;;;;;13.53;8.05;;;;;;;13.20;81.96;97559.88;1726525;82;20912;-81
2021/07/05 03:56:23;;;;;;;12.18;7.75;;;;;;;13.15;82.00;97559.95;1726443;83;20959;-79
2021/07/05 03:58:49;;;;;;;13.20;9.45;;;;;;;13.05;81.60;97560.98;1726668;82;20864;-81
2021/07/05 04:01:15;;;;;;;14.40;8.35;;;;;;;12.88;82.21;97564.34;1726202;82;21003;-81
2021/07/05 04:03:41;;;;;;;13.85;8.28;;;;;;;12.78;82.44;97565.13;1727763;82;21306;-81
2021/07/05 04:06:07;;;;;;;10.23;7.47;;;;;;;12.74;82.34;97565.51;1726304;83;20936;-78
2021/07/05 04:08:35;;;;;;;13.18;7.92;;;;;;;12.69;82.86;97565.05;1727249;82;21388;-81
2021/07/05 04:11:03;;;;;;;11.48;8.45;;;;;;;12.71;82.42;97562.82;1726381;83;21103;-79
2021/07/05 04:13:29;;;;;;;15.78;8.23;;;;;;;12.72;82.35;97563.06;1705825;82;21027;-78
2021/07/05 04:15:56;;;;;;;11.90;7.67;;;;;;;12.75;81.91;97566.55;1725842;82;21965;-78
2021/07/05 04:18:22;;;;;;;11.85;8.45;;;;;;;12.68;82.33;97568.32;1726777;83;21050;-81
2021/07/05 04:20:48;;;;;;;10.23;7.87;;;;;;;12.74;82.50;97570.94;1726242;83;20890;-80
2021/07/05 04:23:15;;;;;;;11.00;7.17;;;;;;;12.81;82.53;97576.75;1726799;82;21030;-81
2021/07/05 04:25:41;;;;;;;9.88;7.55;;;;;;;12.85;82.73;97569.61;1742502;80;20951;-81
2021/07/05 04:28:07;;;;;;;16.62;7.80;;;;;;;13.02;82.54;97575.77;1764928;81;21081;-79
2021/07/05 04:30:34;;;;;;;14.05;8.15;;;;;;;13.15;82.05;97581.16;1765299;81;20980;-78
2021/07/05 04:33:00;;;;;;;11.28;8.53;;;;;;;13.42;82.19;97584.95;1764707;80;20958;-79
2021/07/05 04:35:26;;;;;;;12.45;9.43;;;;;;;13.54;81.75;97585.19;1765749;81;20832;-81
2021/07/05 04:37:53;;;;;;;13.22;9.98;;;;;;;13.62;81.69;97580.37;1764860;81;21442;-79
2021/07/05 04:40:27;;;;;;;11.05;9.15;;;;;;;13.82;81.47;97588.58;1764585;81;21273;-78
2021/07/05 04:42:52;;;;;;;17.75;10.18;;;;;;;14.10;80.48;97585.16;1764857;81;20971;-81
2021/07/05 04:45:21;;;;;;;12.68;9.60;;;;;;;14.28;80.54;97583.31;1765244;81;20819;-79
2021/07/05 04:47:47;;;;;;;;;;;;;;;14.52;79.09;97576.92;1767611;81;20951;-79
2021/07/05 04:50:14;;;;;;;14.78;10.18;;;;;;;14.61;78.45;97576.41;1765020;81;20227;-81
2021/07/05 04:52:40;;;;;;;19.37;10.43;;;;;;;14.76;78.08;97569.70;1764978;80;21155;-81
2021/07/05 04:55:09;;;;;;;13.13;10.03;;;;;;;14.87;78.49;97569.66;1768435;81;20950;-79
2021/07/05 04:57:35;;;;;;;11.30;8.98;;;;;;;15.10;77.50;97566.22;1764957;81;20962;-79
2021/07/05 05:00:05;;;;;;;13.50;10.23;;;;;;;15.26;76.54;97569.28;1769248;80;21085;-80
2021/07/05 05:02:31;;;;;;;12.53;9.20;;;;;;;15.36;75.82;97563.50;1764851;81;20912;-79
2021/07/05 05:04:57;;;;;;;11.28;9.58;;;;;;;15.45;75.35;97557.47;1765039;81;20925;-79
2021/07/05 05:07:23;;;;;;;15.20;9.83;;;;;;;15.57;75.37;97562.86;1764428;81;20943;-79
2021/07/05 05:09:49;;;;;;;11.93;9.68;;;;;;;15.73;74.90;97559.91;1764932;81;20867;-79
2021/07/05 05:12:15;;;;;;;14.00;9.20;;;;;;;15.86;75.16;97556.16;1765526;81;20855;-81
2021/07/05 05:14:41;;;;;;;14.25;9.30;;;;;;;16.07;74.20;97553.55;1765035;81;21351;-79
2021/07/05 05:17:07;;;;;;;14.50;9.23;;;;;;;16.18;73.54;97558.09;1764837;81;21060;-79
2021/07/05 05:19:34;;;;;;;11.20;9.88;;;;;;;16.29;73.37;97559.33;1765161;81;21641;-81
2021/07/05 05:22:00;;;;;;;12.05;9.15;;;;;;;16.35;73.55;97556.66;1765182;81;20975;-79
2021/07/05 05:24:26;;;;;;;14.07;9.30;;;;;;;16.54;73.33;97554.87;1765023;81;20843;-79
2021/07/05 05:26:52;;;;;;;10.53;7.90;;;;;;;16.74;73.37;97556.08;1743227;81;20951;-80
2021/07/05 05:29:18;;;;;;;12.20;8.43;;;;;;;16.96;72.21;97550.31;1765039;81;22146;-81
2021/07/05 05:31:44;;;;;;;14.43;8.80;;;;;;;17.23;71.81;97560.50;1764875;81;20918;-81
2021/07/05 05:34:10;;;;;;;11.18;7.97;;;;;;;17.33;71.57;97563.63;1769349;81;20902;-78
2021/07/05 05:36:36;;;;;;;9.50;8.50;;;;;;;17.53;70.96;97564.78;1765090;81;20906;-81
2021/07/05 05:39:03;;;;;;;13.28;9.25;;;;;;;17.74;70.92;97560.66;1768940;80;21425;-81
2021/07/05 05:41:29;;;;;;;12.10;9.38;;;;;;;17.95;70.45;97569.64;1765414;80;21287;-81
2021/07/05 05:44:00;;;;;;;11.63;9.33;;;;;;;18.21;69.64;97563.88;1765189;81;21563;-78
2021/07/05 05:46:24;;;;;;;17.10;9.85;;;;;;;18.36;68.94;97561.02;1763697;81;21370;-81
2021/07/05 05:48:50;;;;;;;9.33;7.90;;;;;;;18.38;68.77;97557.38;1765102;81;20958;-81
2021/07/05 05:51:17;;;;;;;12.20;8.53;;;;;;;18.49;68.61;97553.61;1764872;81;20930;-81
2021/07/05 05:53:44;;;;;;;10.30;8.68;;;;;;;18.68;68.57;97545.63;1765009;81;21228;-78
2021/07/05 05:56:10;;;;;;;10.15;8.40;;;;;;;18.83;67.27;97546.88;1764242;81;20919;-81
2021/07/05 05:58:39;;;;;;;11.38;8.88;;;;;;;18.95;66.39;97553.72;1765241;81;20930;-81
2021/07/05 06:01:04;;;;;;;14.98;9.48;;;;;;;19.00;65.94;97550.75;1764902;81;20997;-81
2021/07/05 06:03:30;;;;;;;16.67;9.68;;;;;;;18.98;66.31;97544.02;1765340;81;21508;-78
2021/07/05 06:05:56;;;;;;;11.68;8.73;;;;;;;19.07;66.33;97545.48;1764936;81;21986;-81
2021/07/05 06:08:21;;;;;;;13.60;9.10;;;;;;;19.32;65.73;97547.59;1765275;81;20878;-81
2021/07/05 06:10:47;;;;;;;12.47;8.83;;;;;;;19.47;65.80;97544.66;1764951;80;20953;-80
2021/07/05 06:13:13;;;;;;;13.25;9.40;;;;;;;19.66;64.95;97539.94;1765368;81;20918;-79
2021/07/05 06:15:39;;;;;;;12.90;9.28;;;;;;;19.79;64.38;97537.92;1765277;81;20915;-77
2021/07/05 06:18:05;;;;;;;15.68;9.45;;;;;;;19.95;64.08;97545.63;1765309;81;21018;-81
2021/07/05 06:20:31;;;;;;;13.00;10.55;;;;;;;19.96;64.67;97537.59;1764950;81;20922;-81
2021/07/05 06:22:57;;;;;;;20.05;12.68;;;;;;;20.22;64.71;97538.47;1765705;80;20910;-81
2021/07/05 06:25:24;;;;;;;12.95;10.72;;;;;;;20.48;63.12;97537.39;1764774;80;20815;-78
2021/07/05 06:27:50;;;;;;;13.08;10.23;;;;;;;20.58;62.16;97539.37;1726180;82;21323;-81
2021/07/05 06:30:17;;;;;;;10.75;9.45;;;;;;;20.54;62.11;97542.85;1726370;83;21948;-77
2021/07/05 06:32:43;;;;;;;12.80;8.35;;;;;;;20.60;61.61;97550.84;1725943;83;20966;-78
2021/07/05 06:35:10;;;;;;;15.45;9.40;;;;;;;20.63;61.44;97545.42;1727077;82;20947;-78
2021/07/05 06:37:36;;;;;;;10.82;8.95;;;;;;;20.71;61.98;97543.63;1726671;82;21041;-79
2021/07/05 06:40:06;;;;;;;13.03;9.00;;;;;;;20.80;61.88;97535.41;1726919;82;20967;-80
2021/07/05 06:42:33;;;;;;;10.68;8.73;;;;;;;21.05;62.42;97539.30;1727076;82;21435;-79
2021/07/05 06:44:59;;;;;;;12.95;8.88;;;;;;;21.27;60.87;97544.71;1726633;83;20955;-81
2021/07/05 06:47:25;;;;;;;11.73;7.83;;;;;;;21.38;61.88;97540.25;1726509;82;21018;-80
2021/07/05 06:49:51;;;;;;;12.47;9.18;;;;;;;21.57;61.12;97541.62;1726629;82;20855;-79
2021/07/05 06:52:17;;;;;;;12.43;8.75;;;;;;;21.78;60.90;97543.98;1726731;83;20930;-81
2021/07/05 06:54:43;;;;;;;11.05;8.38;;;;;;;21.99;60.67;97534.54;1705772;83;22036;-81
2021/07/05 06:57:29;;;;;;;10.60;7.58;;;;;;;22.20;60.24;97535.73;1726239;83;20851;-79
2021/07/05 06:59:36;;;;;;;12.47;8.78;;;;;;;22.46;59.70;97542.48;1706689;82;20954;-82
2021/07/05 07:02:03;;;;;;;10.45;8.38;;;;;;;22.69;58.62;97538.32;1729794;83;20852;-82
2021/07/05 07:04:29;;;;;;;10.32;8.60;;;;;;;22.74;58.17;97538.81;1726409;83;21017;-82
2021/07/05 07:06:55;;;;;;;14.65;7.50;;;;;;;22.96;57.09;97544.09;1726801;82;20848;-81
2021/07/05 07:09:21;;;;;;;14.43;7.60;;;;;;;22.90;55.89;97542.02;1729682;82;20926;-80
2021/07/05 07:11:47;;;;;;;9.48;6.67;;;;;;;22.96;57.53;97544.67;1726537;82;21006;-81
2021/07/05 07:14:13;;;;;;;7.80;6.90;;;;;;;23.11;54.22;97529.90;1727212;82;20926;-80
2021/07/05 07:16:45;;;;;;;7.33;6.60;;;;;;;23.40;55.25;97535.20;1726516;83;21077;-80
2021/07/05 07:19:18;;;;;;;7.47;6.12;;;;;;;23.57;53.55;97536.60;1726765;83;21380;-81
2021/07/05 07:21:47;;;;;;;9.18;5.97;;;;;;;23.70;53.45;97536.61;1727529;82;21375;-79
2021/07/05 07:24:13;;;;;;;6.80;5.83;;;;;;;24.05;53.05;97529.87;1726281;82;20966;-80
2021/07/05 07:26:39;;;;;;;8.10;6.92;;;;;;;24.36;52.39;97523.08;1721989;81;20931;-82
2021/07/05 07:29:05;;;;;;;6.50;5.85;;;;;;;24.55;50.34;97522.05;1765449;81;20902;-79
2021/07/05 07:31:32;;;;;;;7.75;5.90;;;;;;;24.43;47.27;97516.20;1755472;81;21918;-82
2021/07/05 07:33:58;;;;;;;8.03;6.45;;;;;;;24.43;47.53;97520.34;1749646;81;20961;-80
2021/07/05 07:36:25;;;;;;;6.55;5.45;;;;;;;24.45;48.91;97516.05;1698892;84;20946;-80
2021/07/05 07:38:54;;;;;;;7.87;5.00;;;;;;;24.70;48.67;97514.85;1754239;81;20951;-78
2021/07/05 07:41:24;;;;;;;10.32;5.85;;;;;;;25.35;45.84;97508.31;1760850;80;21045;-80
2021/07/05 07:43:50;;;;;;;6.97;5.20;;;;;;;25.56;45.48;97504.26;1747253;80;21456;-82
2021/07/05 07:46:18;;;;;;;6.05;4.72;;;;;;;25.68;43.54;97503.89;1736999;82;22074;-82
2021/07/05 07:48:44;;;;;;;7.30;5.15;;;;;;;26.05;43.42;97500.83;1736887;82;21657;-80
2021/07/05 07:51:10;;;;;;;6.33;5.05;;;;;;;26.40;43.26;97498.70;1756350;81;20997;-83
2021/07/05 07:53:36;;;;;;;7.72;5.33;;;;;;;26.63;43.29;97496.13;1746804;81;21007;-78
2021/07/05 07:56:02;;;;;;;6.45;5.25;;;;;;;26.70;42.35;97491.95;1742798;80;21124;-78
2021/07/05 07:58:28;;;;;;;7.78;5.28;;;;;;;26.79;43.61;97499.89;1766348;80;21456;-79
2021/07/05 08:00:54;;;;;;;6.28;4.90;;;;;;;27.02;41.89;97499.45;1739032;82;20943;-80
2021/07/05 08:03:20;;;;;;;5.87;5.12;;;;;;;27.31;41.87;97489.06;1748612;80;20838;-76
2021/07/05 08:05:47;;;;;;;8.03;4.58;;;;;;;27.70;42.24;97488.33;1769870;80;20902;-84
2021/07/05 08:08:13;;;;;;;6.42;5.00;;;;;;;28.11;41.85;97489.05;1748907;81;21004;-81
2021/07/05 08:10:39;;;;;;;12.20;8.00;;;;;;;28.69;40.67;97488.82;1769729;80;20933;-72
2021/07/05 08:13:05;;;;;;;5.53;4.70;;;;;;;29.02;39.20;97483.75;1745365;80;20897;-77
2021/07/05 08:15:31;;;;;;;5.08;4.28;;;;;;;29.37;35.02;97486.73;1738989;82;21007;-80
2021/07/05 08:17:58;;;;;;;4.72;4.28;;;;;;;30.02;37.94;97481.31;1752977;80;20873;-81
2021/07/05 08:20:24;;;;;;;5.30;4.42;;;;;;;30.53;38.09;97472.96;1757787;81;21056;-79
2021/07/05 08:22:54;;;;;;;4.92;4.20;;;;;;;31.06;36.55;97473.41;1754397;80;20822;-79
2021/07/05 08:25:22;;;;;;;5.12;4.08;;;;;;;31.08;35.50;97474.38;1755431;80;20965;-77
2021/07/05 08:27:48;;;;;;;4.87;4.45;;;;;;;31.44;35.25;97473.08;1753573;80;20971;-78
2021/07/05 08:30:14;;;;;;;7.00;4.45;;;;;;;31.84;34.55;97464.05;1752224;80;20895;-81
2021/07/05 08:32:40;;;;;;;6.60;4.50;;;;;;;32.06;34.32;97468.56;1755899;80;21342;-81
2021/07/05 08:35:07;;;;;;;5.08;4.53;;;;;;;32.27;33.50;97465.24;1751569;80;20881;-80
2021/07/05 08:37:34;;;;;;;7.10;4.65;;;;;;;32.51;33.15;97469.31;1735583;82;21076;-80
2021/07/05 08:40:00;;;;;;;6.28;4.20;;;;;;;33.05;33.25;97469.50;1736829;82;21044;-84
2021/07/05 08:42:27;;;;;;;4.53;4.00;;;;;;;33.22;31.69;97474.45;1736212;82;21453;-78
2021/07/05 08:44:53;;;;;;;5.67;4.85;;;;;;;33.40;30.80;97478.18;1737937;82;21139;-81
2021/07/05 08:47:19;;;;;;;8.25;4.53;;;;;;;33.37;30.75;97475.66;1737604;82;21339;-81
2021/07/05 08:49:48;;;;;;;4.90;4.45;;;;;;;33.70;29.65;97477.53;1737783;82;21658;-86
2021/07/05 08:52:14;;;;;;;5.95;4.75;;;;;;;33.84;29.87;97474.27;1736394;80;20993;-86
2021/07/05 08:54:39;;;;;;;7.62;4.78;;;;;;;34.17;29.79;97473.48;1737268;82;21477;-87
2021/07/05 08:57:06;;;;;;;4.85;4.22;;;;;;;33.88;26.96;97471.57;1701453;83;20989;-87
2021/07/05 08:59:32;;;;;;;6.28;4.20;;;;;;;34.60;29.10;97476.33;1682507;85;21048;-81
2021/07/05 09:01:58;;;;;;;7.20;4.50;;;;;;;35.27;27.79;97478.20;1703460;83;20941;-87
2021/07/05 09:04:24;;;;;;;5.33;4.00;;;;;;;34.99;25.08;97477.20;1656353;85;21635;-87
2021/07/05 09:07:07;;;;;;;5.67;3.60;;;;;;;35.11;25.12;97476.20;1703724;84;20906;-87
2021/07/05 09:09:35;;;;;;;3.70;3.37;;;;;;;34.49;23.58;97481.69;1686031;85;21164;-88
2021/07/05 09:12:05;;;;;;;;;;;;;;;34.90;23.74;97484.78;1720919;82;21033;-88
2021/07/05 09:14:31;;;;;;;6.42;4.47;;;;;;;34.86;23.15;97486.89;1739261;82;20437;-86
2021/07/05 09:16:57;;;;;;;4.75;4.15;;;;;;;33.75;25.81;97484.77;1738940;82;20972;-80
2021/07/05 09:19:29;;;;;;;6.08;4.40;;;;;;;33.69;26.51;97485.80;1739261;81;21036;-80
2021/07/05 09:22:02;;;;;;;4.00;3.70;;;;;;;34.27;25.41;97483.62;1739217;82;21374;-86
2021/07/05 09:24:41;;;;;;;4.08;3.67;;;;;;;34.36;24.56;97480.91;1704017;83;21378;-87
2021/07/05 09:27:14;;;;;;;4.78;3.35;;;;;;;33.26;25.14;97482.17;1680518;84;20934;-81
2021/07/05 09:29:42;;;;;;;6.15;3.40;;;;;;;32.49;23.83;97486.58;1703266;83;21159;-87
2021/07/05 09:32:12;;;;;;;5.10;3.50;;;;;;;32.48;25.52;97490.61;1685725;85;20975;-81
2021/07/05 09:34:41;;;;;;;5.58;3.42;;;;;;;32.52;26.26;97487.70;1685912;85;21859;-80
2021/07/05 09:37:21;;;;;;;3.90;3.50;;;;;;;32.19;25.71;97494.66;1681722;84;20970;-86
2021/07/05 09:40:08;;;;;;;3.40;3.10;;;;;;;31.91;26.70;97491.13;1703177;83;21031;-80
2021/07/05 09:42:38;;;;;;;5.05;3.77;;;;;;;31.12;25.93;97494.09;1680917;85;21714;-87
2021/07/05 09:45:11;;;;;;;4.47;3.67;;;;;;;30.47;26.60;97489.41;1703967;83;20977;-81
2021/07/05 09:47:37;;;;;;;5.15;4.10;;;;;;;29.96;27.82;97485.78;1679680;85;21152;-86
2021/07/05 09:50:21;;;;;;;5.95;4.30;;;;;;;29.55;29.18;97491.52;1703924;84;21531;-81
2021/07/05 09:52:46;;;;;;;5.53;4.45;;;;;;;29.19;30.03;97489.13;1680755;85;20970;-80
2021/07/05 09:55:16;;;;;;;6.05;4.00;;;;;;;28.65;30.81;97494.44;1703962;84;21454;-79
2021/07/05 09:57:51;;;;;;;5.12;4.62;;;;;;;28.35;30.80;97496.47;1680679;85;21065;-79
2021/07/05 10:00:25;;;;;;;5.53;4.17;;;;;;;28.21;30.92;97496.56;1704100;84;21027;-86
2021/07/05 10:03:04;;;;;;;6.83;4.33;;;;;;;28.15;31.32;97491.23;1680776;85;21077;-80
2021/07/05 10:05:34;;;;;;;6.33;4.75;;;;;;;28.05;32.23;97499.06;1703874;83;21335;-85
2021/07/05 10:08:09;;;;;;;7.28;4.50;;;;;;;28.03;32.79;97502.83;1712825;83;20969;-86
2021/07/05 10:10:37;;;;;;;6.20;5.03;;;;;;;28.07;33.01;97505.80;1738989;82;21095;-78
2021/07/05 10:13:16;;;;;;;5.17;4.15;;;;;;;28.13;33.17;97506.17;1738558;82;21879;-79
2021/07/05 10:15:42;;;;;;;5.42;4.30;;;;;;;28.26;33.47;97502.28;1703477;83;21024;-80
2021/07/05 10:18:08;;;;;;;7.20;4.40;;;;;;;28.20;34.50;97499.16;1681026;85;21024;-86
2021/07/05 10:20:39;;;;;;;8.80;5.30;;;;;;;28.64;34.14;97497.64;1707591;83;21063;-81
2021/07/05 10:23:16;;;;;;;5.05;4.55;;;;;;;28.88;34.14;97498.59;1686158;85;20973;-81
2021/07/05 10:25:45;;;;;;;6.72;4.75;;;;;;;28.94;34.08;97497.77;1739409;82;21798;-79
2021/07/05 10:28:11;;;;;;;5.05;4.22;;;;;;;28.59;32.15;97496.08;1742705;81;20927;-86
2021/07/05 10:30:37;;;;;;;5.17;4.67;;;;;;;28.86;33.38;97499.61;1713947;82;20869;-80
2021/07/05 10:33:03;;;;;;;6.35;4.60;;;;;;;29.49;32.09;97505.16;1739118;82;21480;-86
2021/07/05 10:35:45;;;;;;;4.50;4.10;;;;;;;29.52;31.52;97508.32;1717464;82;20937;-84
2021/07/05 10:38:34;;;;;;;4.55;4.08;;;;;;;29.93;31.70;97506.18;1740144;82;22028;-87
2021/07/05 10:41:04;;;;;;;7.90;4.60;;;;;;;30.28;29.50;97505.50;1739312;82;21132;-84
2021/07/05 10:43:58;;;;;;;4.72;4.22;;;;;;;31.96;28.38;97506.81;1702727;84;21331;-81
2021/07/05 10:46:52;;;;;;;6.87;3.95;;;;;;;33.80;26.05;97506.70;1718441;82;20976;-81
2021/07/05 10:49:34;;;;;;;7.03;4.00;;;;;;;35.63;25.19;97510.72;1683441;84;21049;-81
2021/07/05 10:52:06;;;;;;;4.12;3.52;;;;;;;36.80;22.86;97501.71;1739711;82;21291;-81
2021/07/05 10:54:51;;;;;;;9.08;4.67;;;;;;;34.69;22.48;97505.95;1703590;83;21030;-87
2021/07/05 10:57:23;;;;;;;4.37;3.98;;;;;;;33.69;24.65;97500.63;1739401;82;20962;-85
2021/07/05 10:59:50;;;;;;;7.45;4.97;;;;;;;32.40;24.55;97499.63;1717059;82;21397;-86
2021/07/05 11:02:44;;;;;;;7.55;4.37;;;;;;;32.58;24.96;97499.19;1704307;83;20926;-80
2021/07/05 11:05:41;;;;;;;8.60;4.42;;;;;;;33.59;24.88;97494.09;1718306;82;21670;-86
2021/07/05 11:08:21;;;;;;;7.37;4.20;;;;;;;34.83;22.92;97497.03;1703894;84;21042;-87
2021/07/05 11:10:48;;;;;;;6.62;4.33;;;;;;;34.23;24.32;97492.15;1739718;82;21409;-86
2021/07/05 11:13:16;;;;;;;6.47;3.92;;;;;;;33.86;25.15;97494.30;1717813;82;27972;-81
2021/07/05 11:15:57;;;;;;;5.22;4.20;;;;;;;35.15;22.54;97493.77;1707700;83;21065;-85
2021/07/05 11:18:45;;;;;;;6.15;4.08;;;;;;;35.13;22.99;97486.41;1739399;82;21115;-81
2021/07/05 11:21:25;;;;;;;7.03;4.62;;;;;;;34.57;22.12;97482.25;1723610;82;20950;-88
2021/07/05 11:24:06;;;;;;;4.10;3.70;;;;;;;36.08;21.19;97488.31;1739608;82;21428;-80
2021/07/05 11:26:38;;;;;;;5.35;4.05;;;;;;;36.68;20.80;97478.81;1739877;80;20925;-87
2021/07/05 11:29:23;;;;;;;6.22;3.65;;;;;;;36.64;21.37;97480.98;1737308;80;20973;-81
2021/07/05 11:32:02;;;;;;;4.35;3.62;;;;;;;36.95;21.66;97483.73;1737208;82;21735;-88
2021/07/05 11:34:36;;;;;;;4.05;3.62;;;;;;;37.79;20.74;97481.05;1737372;82;21437;-86